sensor_id;sensor_type;location;lat;lon;timestamp;P1;durP1;ratioP1;P2;durP2;ratioP2
3081;SDS011;1551;51.046;7.010;2023-01-30T00:01:54;17.73;;;12.30;;
3081;SDS011;1551;51.046;7.010;2023-01-30T00:04:43;19.02;;;13.23;;
3081;SDS011;1551;51.046;7.010;2023-01-30T00:07:32;19.67;;;12.53;;
3081;SDS011;1551;51.046;7.010;2023-01-30T00:10:21;17.75;;;11.80;;
3081;SDS011;1551;51.046;7.010;2023-01-30T00:13:10;21.13;;;13.65;;
3081;SDS011;1551;51.046;7.010;2023-01-30T00:16:02;17.48;;;13.15;;
3081;SDS011;1551;51.046;7.010;2023-01-30T00:18:51;20.98;;;13.50;;
3081;SDS011;1551;51.046;7.010;2023-01-30T00:21:40;17.92;;;12.48;;
3081;SDS011;1551;51.046;7.010;2023-01-30T00:24:29;18.00;;;12.13;;
3081;SDS011;1551;51.046;7.010;2023-01-30T00:27:18;17.45;;;13.38;;
3081;SDS011;1551;51.046;7.010;2023-01-30T00:30:07;18.55;;;13.52;;
3081;SDS011;1551;51.046;7.010;2023-01-30T00:32:57;18.85;;;13.02;;
3081;SDS011;1551;51.046;7.010;2023-01-30T00:35:47;16.65;;;12.43;;
3081;SDS011;1551;51.046;7.010;2023-01-30T00:38:38;16.67;;;12.30;;
3081;SDS011;1551;51.046;7.010;2023-01-30T00:41:29;18.85;;;12.55;;
3081;SDS011;1551;51.046;7.010;2023-01-30T00:44:38;20.58;;;13.00;;
3081;SDS011;1551;51.046;7.010;2023-01-30T00:47:49;20.55;;;13.80;;
3081;SDS011;1551;51.046;7.010;2023-01-30T00:50:38;17.75;;;11.75;;
3081;SDS011;1551;51.046;7.010;2023-01-30T00:53:30;19.05;;;12.90;;
3081;SDS011;1551;51.046;7.010;2023-01-30T00:56:19;18.57;;;12.47;;
3081;SDS011;1551;51.046;7.010;2023-01-30T00:59:09;16.70;;;11.80;;
3081;SDS011;1551;51.046;7.010;2023-01-30T01:01:57;20.63;;;12.98;;
3081;SDS011;1551;51.046;7.010;2023-01-30T01:04:46;18.80;;;12.55;;
3081;SDS011;1551;51.046;7.010;2023-01-30T01:07:35;19.67;;;12.50;;
3081;SDS011;1551;51.046;7.010;2023-01-30T01:10:24;18.77;;;13.20;;
3081;SDS011;1551;51.046;7.010;2023-01-30T01:13:13;19.07;;;13.03;;
3081;SDS011;1551;51.046;7.010;2023-01-30T01:16:03;20.25;;;13.50;;
3081;SDS011;1551;51.046;7.010;2023-01-30T01:18:53;21.30;;;13.07;;
3081;SDS011;1551;51.046;7.010;2023-01-30T01:21:42;20.88;;;13.30;;
3081;SDS011;1551;51.046;7.010;2023-01-30T01:24:31;22.17;;;13.35;;
3081;SDS011;1551;51.046;7.010;2023-01-30T01:27:20;21.95;;;14.43;;
3081;SDS011;1551;51.046;7.010;2023-01-30T01:30:11;20.25;;;14.25;;
3081;SDS011;1551;51.046;7.010;2023-01-30T01:33:00;23.05;;;14.48;;
3081;SDS011;1551;51.046;7.010;2023-01-30T01:35:49;18.98;;;13.23;;
3081;SDS011;1551;51.046;7.010;2023-01-30T01:38:40;18.77;;;13.00;;
3081;SDS011;1551;51.046;7.010;2023-01-30T01:41:31;21.13;;;14.90;;
3081;SDS011;1551;51.046;7.010;2023-01-30T01:44:22;19.95;;;13.52;;
3081;SDS011;1551;51.046;7.010;2023-01-30T01:47:12;19.80;;;13.77;;
3081;SDS011;1551;51.046;7.010;2023-01-30T01:50:01;19.15;;;12.93;;
3081;SDS011;1551;51.046;7.010;2023-01-30T01:52:53;18.08;;;12.93;;
3081;SDS011;1551;51.046;7.010;2023-01-30T01:55:47;20.53;;;13.00;;
3081;SDS011;1551;51.046;7.010;2023-01-30T01:58:44;19.15;;;13.75;;
3081;SDS011;1551;51.046;7.010;2023-01-30T02:01:52;18.67;;;12.63;;
3081;SDS011;1551;51.046;7.010;2023-01-30T02:04:46;16.95;;;10.90;;
3081;SDS011;1551;51.046;7.010;2023-01-30T02:08:03;19.35;;;13.38;;
3081;SDS011;1551;51.046;7.010;2023-01-30T02:11:02;18.73;;;13.35;;
3081;SDS011;1551;51.046;7.010;2023-01-30T02:14:07;20.50;;;13.05;;
3081;SDS011;1551;51.046;7.010;2023-01-30T02:16:57;20.95;;;12.85;;
3081;SDS011;1551;51.046;7.010;2023-01-30T02:19:48;21.20;;;12.68;;
3081;SDS011;1551;51.046;7.010;2023-01-30T02:22:50;19.55;;;12.70;;
3081;SDS011;1551;51.046;7.010;2023-01-30T02:32:45;18.15;;;12.30;;
3081;SDS011;1551;51.046;7.010;2023-01-30T02:39:05;16.95;;;12.57;;
3081;SDS011;1551;51.046;7.010;2023-01-30T02:42:03;18.97;;;12.50;;
3081;SDS011;1551;51.046;7.010;2023-01-30T02:45:08;17.92;;;13.10;;
3081;SDS011;1551;51.046;7.010;2023-01-30T02:48:50;20.70;;;12.82;;
3081;SDS011;1551;51.046;7.010;2023-01-30T02:51:29;18.15;;;12.52;;
3081;SDS011;1551;51.046;7.010;2023-01-30T02:54:22;19.25;;;12.98;;
3081;SDS011;1551;51.046;7.010;2023-01-30T02:57:16;20.08;;;13.02;;
3081;SDS011;1551;51.046;7.010;2023-01-30T03:00:08;17.77;;;11.95;;
3081;SDS011;1551;51.046;7.010;2023-01-30T03:15:28;18.85;;;13.15;;
3081;SDS011;1551;51.046;7.010;2023-01-30T03:18:18;17.70;;;12.48;;
3081;SDS011;1551;51.046;7.010;2023-01-30T03:21:08;18.45;;;13.65;;
3081;SDS011;1551;51.046;7.010;2023-01-30T03:23:59;18.10;;;13.05;;
3081;SDS011;1551;51.046;7.010;2023-01-30T03:26:51;17.50;;;12.10;;
3081;SDS011;1551;51.046;7.010;2023-01-30T03:29:44;18.48;;;11.75;;
3081;SDS011;1551;51.046;7.010;2023-01-30T03:32:33;17.88;;;12.25;;
3081;SDS011;1551;51.046;7.010;2023-01-30T03:35:23;18.70;;;12.60;;
3081;SDS011;1551;51.046;7.010;2023-01-30T03:38:12;19.00;;;12.63;;
3081;SDS011;1551;51.046;7.010;2023-01-30T03:41:02;20.20;;;12.63;;
3081;SDS011;1551;51.046;7.010;2023-01-30T03:43:52;17.33;;;11.93;;
3081;SDS011;1551;51.046;7.010;2023-01-30T03:46:42;17.17;;;11.02;;
3081;SDS011;1551;51.046;7.010;2023-01-30T03:49:31;18.23;;;11.40;;
3081;SDS011;1551;51.046;7.010;2023-01-30T03:52:20;16.57;;;11.53;;
3081;SDS011;1551;51.046;7.010;2023-01-30T03:55:09;18.25;;;12.00;;
3081;SDS011;1551;51.046;7.010;2023-01-30T03:57:58;17.63;;;11.23;;
3081;SDS011;1551;51.046;7.010;2023-01-30T04:00:51;20.55;;;11.57;;
3081;SDS011;1551;51.046;7.010;2023-01-30T04:03:40;17.33;;;10.90;;
3081;SDS011;1551;51.046;7.010;2023-01-30T04:06:29;19.53;;;12.00;;
3081;SDS011;1551;51.046;7.010;2023-01-30T04:09:19;15.25;;;11.23;;
3081;SDS011;1551;51.046;7.010;2023-01-30T04:12:11;17.70;;;11.80;;
3081;SDS011;1551;51.046;7.010;2023-01-30T04:15:10;20.27;;;12.13;;
3081;SDS011;1551;51.046;7.010;2023-01-30T04:18:13;16.15;;;11.77;;
3081;SDS011;1551;51.046;7.010;2023-01-30T04:21:20;18.80;;;12.00;;
3081;SDS011;1551;51.046;7.010;2023-01-30T04:24:10;16.98;;;11.35;;
3081;SDS011;1551;51.046;7.010;2023-01-30T04:26:59;14.80;;;10.63;;
3081;SDS011;1551;51.046;7.010;2023-01-30T04:29:49;15.80;;;11.65;;
3081;SDS011;1551;51.046;7.010;2023-01-30T04:32:39;19.08;;;12.95;;
3081;SDS011;1551;51.046;7.010;2023-01-30T04:35:28;17.30;;;10.77;;
3081;SDS011;1551;51.046;7.010;2023-01-30T04:38:17;15.63;;;11.00;;
3081;SDS011;1551;51.046;7.010;2023-01-30T04:41:06;18.45;;;12.73;;
3081;SDS011;1551;51.046;7.010;2023-01-30T04:43:58;16.50;;;11.13;;
3081;SDS011;1551;51.046;7.010;2023-01-30T04:46:56;14.90;;;11.27;;
3081;SDS011;1551;51.046;7.010;2023-01-30T04:49:45;16.45;;;11.00;;
3081;SDS011;1551;51.046;7.010;2023-01-30T04:52:37;18.75;;;12.70;;
3081;SDS011;1551;51.046;7.010;2023-01-30T04:55:26;18.63;;;12.35;;
3081;SDS011;1551;51.046;7.010;2023-01-30T04:58:15;16.90;;;12.50;;
3081;SDS011;1551;51.046;7.010;2023-01-30T05:01:12;15.88;;;11.77;;
3081;SDS011;1551;51.046;7.010;2023-01-30T05:04:02;16.40;;;12.55;;
3081;SDS011;1551;51.046;7.010;2023-01-30T05:06:53;18.65;;;12.50;;
3081;SDS011;1551;51.046;7.010;2023-01-30T05:09:42;16.40;;;11.77;;
3081;SDS011;1551;51.046;7.010;2023-01-30T05:12:31;18.55;;;11.82;;
3081;SDS011;1551;51.046;7.010;2023-01-30T05:15:19;19.58;;;12.13;;
3081;SDS011;1551;51.046;7.010;2023-01-30T05:18:08;17.90;;;12.07;;
3081;SDS011;1551;51.046;7.010;2023-01-30T05:21:07;17.95;;;11.52;;
3081;SDS011;1551;51.046;7.010;2023-01-30T05:23:58;18.23;;;12.50;;
3081;SDS011;1551;51.046;7.010;2023-01-30T05:26:47;20.25;;;12.55;;
3081;SDS011;1551;51.046;7.010;2023-01-30T05:29:36;17.27;;;12.50;;
3081;SDS011;1551;51.046;7.010;2023-01-30T05:32:24;19.55;;;13.32;;
3081;SDS011;1551;51.046;7.010;2023-01-30T05:35:14;16.77;;;11.52;;
3081;SDS011;1551;51.046;7.010;2023-01-30T05:38:03;22.55;;;14.13;;
3081;SDS011;1551;51.046;7.010;2023-01-30T05:40:59;18.73;;;12.68;;
3081;SDS011;1551;51.046;7.010;2023-01-30T05:43:50;18.95;;;12.48;;
3081;SDS011;1551;51.046;7.010;2023-01-30T05:46:39;18.38;;;12.32;;
3081;SDS011;1551;51.046;7.010;2023-01-30T05:49:28;16.58;;;11.68;;
3081;SDS011;1551;51.046;7.010;2023-01-30T05:52:17;17.10;;;12.70;;
3081;SDS011;1551;51.046;7.010;2023-01-30T05:55:06;17.30;;;11.47;;
3081;SDS011;1551;51.046;7.010;2023-01-30T05:57:55;19.58;;;11.82;;
3081;SDS011;1551;51.046;7.010;2023-01-30T06:00:44;20.80;;;11.90;;
3081;SDS011;1551;51.046;7.010;2023-01-30T06:03:33;17.42;;;10.63;;
3081;SDS011;1551;51.046;7.010;2023-01-30T06:06:22;14.35;;;10.35;;
3081;SDS011;1551;51.046;7.010;2023-01-30T06:09:11;16.23;;;10.57;;
3081;SDS011;1551;51.046;7.010;2023-01-30T06:12:00;14.75;;;9.70;;
3081;SDS011;1551;51.046;7.010;2023-01-30T06:14:49;16.95;;;10.65;;
3081;SDS011;1551;51.046;7.010;2023-01-30T06:17:42;12.95;;;10.15;;
3081;SDS011;1551;51.046;7.010;2023-01-30T06:20:31;15.20;;;10.25;;
3081;SDS011;1551;51.046;7.010;2023-01-30T06:23:20;16.13;;;9.95;;
3081;SDS011;1551;51.046;7.010;2023-01-30T06:26:11;13.93;;;9.93;;
3081;SDS011;1551;51.046;7.010;2023-01-30T06:29:00;12.88;;;9.50;;
3081;SDS011;1551;51.046;7.010;2023-01-30T06:31:49;14.45;;;9.73;;
3081;SDS011;1551;51.046;7.010;2023-01-30T06:34:37;16.60;;;11.18;;
3081;SDS011;1551;51.046;7.010;2023-01-30T06:37:26;15.45;;;10.45;;
3081;SDS011;1551;51.046;7.010;2023-01-30T06:40:15;14.63;;;10.30;;
3081;SDS011;1551;51.046;7.010;2023-01-30T06:43:05;16.40;;;10.15;;
3081;SDS011;1551;51.046;7.010;2023-01-30T06:45:54;12.27;;;9.27;;
3081;SDS011;1551;51.046;7.010;2023-01-30T06:48:46;12.60;;;8.85;;
3081;SDS011;1551;51.046;7.010;2023-01-30T06:51:35;10.53;;;8.47;;
3081;SDS011;1551;51.046;7.010;2023-01-30T06:54:24;17.50;;;9.50;;
3081;SDS011;1551;51.046;7.010;2023-01-30T06:57:13;15.05;;;8.73;;
3081;SDS011;1551;51.046;7.010;2023-01-30T07:00:03;14.30;;;9.77;;
3081;SDS011;1551;51.046;7.010;2023-01-30T07:02:54;12.75;;;8.82;;
3081;SDS011;1551;51.046;7.010;2023-01-30T07:05:43;10.07;;;7.10;;
3081;SDS011;1551;51.046;7.010;2023-01-30T07:08:34;13.10;;;8.83;;
3081;SDS011;1551;51.046;7.010;2023-01-30T07:11:25;10.55;;;8.18;;
3081;SDS011;1551;51.046;7.010;2023-01-30T07:14:14;11.20;;;7.85;;
3081;SDS011;1551;51.046;7.010;2023-01-30T07:17:03;13.00;;;8.30;;
3081;SDS011;1551;51.046;7.010;2023-01-30T07:19:52;12.40;;;9.43;;
3081;SDS011;1551;51.046;7.010;2023-01-30T07:22:41;13.10;;;9.05;;
3081;SDS011;1551;51.046;7.010;2023-01-30T07:25:30;13.80;;;10.40;;
3081;SDS011;1551;51.046;7.010;2023-01-30T07:28:19;12.80;;;10.23;;
3081;SDS011;1551;51.046;7.010;2023-01-30T07:31:08;13.68;;;9.60;;
3081;SDS011;1551;51.046;7.010;2023-01-30T07:33:57;14.30;;;10.10;;
3081;SDS011;1551;51.046;7.010;2023-01-30T07:36:46;15.07;;;10.00;;
3081;SDS011;1551;51.046;7.010;2023-01-30T07:39:34;10.10;;;8.20;;
3081;SDS011;1551;51.046;7.010;2023-01-30T07:42:23;10.80;;;7.22;;
3081;SDS011;1551;51.046;7.010;2023-01-30T07:45:14;13.93;;;8.80;;
3081;SDS011;1551;51.046;7.010;2023-01-30T07:48:03;13.73;;;8.80;;
3081;SDS011;1551;51.046;7.010;2023-01-30T07:50:54;10.02;;;7.90;;
3081;SDS011;1551;51.046;7.010;2023-01-30T07:53:47;13.40;;;9.32;;
3081;SDS011;1551;51.046;7.010;2023-01-30T07:56:37;12.77;;;9.57;;
3081;SDS011;1551;51.046;7.010;2023-01-30T07:59:26;12.23;;;9.40;;
3081;SDS011;1551;51.046;7.010;2023-01-30T08:02:15;12.25;;;8.95;;
3081;SDS011;1551;51.046;7.010;2023-01-30T08:05:04;10.50;;;9.10;;
3081;SDS011;1551;51.046;7.010;2023-01-30T08:07:54;13.32;;;10.40;;
3081;SDS011;1551;51.046;7.010;2023-01-30T08:10:44;13.20;;;10.20;;
3081;SDS011;1551;51.046;7.010;2023-01-30T08:13:33;14.73;;;9.70;;
3081;SDS011;1551;51.046;7.010;2023-01-30T08:16:22;12.20;;;9.00;;
3081;SDS011;1551;51.046;7.010;2023-01-30T08:19:11;11.35;;;9.52;;
3081;SDS011;1551;51.046;7.010;2023-01-30T08:22:00;16.33;;;10.10;;
3081;SDS011;1551;51.046;7.010;2023-01-30T08:24:49;13.23;;;9.13;;
3081;SDS011;1551;51.046;7.010;2023-01-30T08:27:38;11.60;;;8.02;;
3081;SDS011;1551;51.046;7.010;2023-01-30T08:30:27;12.15;;;8.88;;
3081;SDS011;1551;51.046;7.010;2023-01-30T08:33:18;10.95;;;8.63;;
3081;SDS011;1551;51.046;7.010;2023-01-30T08:36:07;11.35;;;9.20;;
3081;SDS011;1551;51.046;7.010;2023-01-30T08:38:56;13.95;;;8.63;;
3081;SDS011;1551;51.046;7.010;2023-01-30T08:41:45;12.30;;;8.55;;
3081;SDS011;1551;51.046;7.010;2023-01-30T08:44:34;14.52;;;8.80;;
3081;SDS011;1551;51.046;7.010;2023-01-30T08:47:23;13.30;;;9.40;;
3081;SDS011;1551;51.046;7.010;2023-01-30T08:50:13;15.20;;;9.00;;
3081;SDS011;1551;51.046;7.010;2023-01-30T08:53:06;14.77;;;9.60;;
3081;SDS011;1551;51.046;7.010;2023-01-30T08:55:56;13.80;;;9.27;;
3081;SDS011;1551;51.046;7.010;2023-01-30T08:58:45;12.32;;;8.80;;
3081;SDS011;1551;51.046;7.010;2023-01-30T09:01:36;10.70;;;8.30;;
3081;SDS011;1551;51.046;7.010;2023-01-30T09:04:28;13.95;;;8.10;;
3081;SDS011;1551;51.046;7.010;2023-01-30T09:07:17;11.38;;;8.20;;
3081;SDS011;1551;51.046;7.010;2023-01-30T09:10:07;14.90;;;8.55;;
3081;SDS011;1551;51.046;7.010;2023-01-30T09:12:56;14.10;;;7.75;;
3081;SDS011;1551;51.046;7.010;2023-01-30T09:15:45;11.00;;;7.65;;
3081;SDS011;1551;51.046;7.010;2023-01-30T09:18:36;9.73;;;6.70;;
3081;SDS011;1551;51.046;7.010;2023-01-30T09:21:27;11.38;;;7.55;;
3081;SDS011;1551;51.046;7.010;2023-01-30T09:24:16;9.80;;;6.40;;
3081;SDS011;1551;51.046;7.010;2023-01-30T09:27:05;12.88;;;5.68;;
3081;SDS011;1551;51.046;7.010;2023-01-30T09:29:54;13.10;;;5.97;;
3081;SDS011;1551;51.046;7.010;2023-01-30T09:32:43;10.50;;;5.23;;
3081;SDS011;1551;51.046;7.010;2023-01-30T09:35:32;10.20;;;5.30;;
3081;SDS011;1551;51.046;7.010;2023-01-30T09:38:21;9.00;;;4.53;;
3081;SDS011;1551;51.046;7.010;2023-01-30T09:50:21;8.57;;;3.60;;
3081;SDS011;1551;51.046;7.010;2023-01-30T09:53:24;10.87;;;3.00;;
3081;SDS011;1551;51.046;7.010;2023-01-30T09:56:23;11.32;;;3.60;;
3081;SDS011;1551;51.046;7.010;2023-01-30T09:59:18;8.65;;;3.70;;
3081;SDS011;1551;51.046;7.010;2023-01-30T10:05:41;10.43;;;3.13;;
3081;SDS011;1551;51.046;7.010;2023-01-30T10:16:13;8.02;;;2.53;;
3081;SDS011;1551;51.046;7.010;2023-01-30T10:28:34;10.05;;;3.10;;
3081;SDS011;1551;51.046;7.010;2023-01-30T10:31:29;10.93;;;3.50;;
3081;SDS011;1551;51.046;7.010;2023-01-30T10:34:28;15.90;;;3.60;;
3081;SDS011;1551;51.046;7.010;2023-01-30T10:43:28;8.52;;;3.00;;
3081;SDS011;1551;51.046;7.010;2023-01-30T10:46:25;9.70;;;3.30;;
3081;SDS011;1551;51.046;7.010;2023-01-30T10:55:46;12.43;;;3.40;;
3081;SDS011;1551;51.046;7.010;2023-01-30T10:58:51;13.25;;;3.60;;
3081;SDS011;1551;51.046;7.010;2023-01-30T11:05:23;16.95;;;7.13;;
3081;SDS011;1551;51.046;7.010;2023-01-30T11:08:22;13.55;;;3.40;;
3081;SDS011;1551;51.046;7.010;2023-01-30T11:14:27;14.07;;;3.65;;
3081;SDS011;1551;51.046;7.010;2023-01-30T11:17:16;8.60;;;2.60;;
3081;SDS011;1551;51.046;7.010;2023-01-30T11:20:16;6.50;;;2.72;;
3081;SDS011;1551;51.046;7.010;2023-01-30T11:23:53;10.75;;;3.33;;
3081;SDS011;1551;51.046;7.010;2023-01-30T11:26:23;9.35;;;2.85;;
3081;SDS011;1551;51.046;7.010;2023-01-30T11:32:22;10.25;;;3.42;;
3081;SDS011;1551;51.046;7.010;2023-01-30T11:38:10;11.77;;;3.08;;
3081;SDS011;1551;51.046;7.010;2023-01-30T11:44:01;11.07;;;3.47;;
3081;SDS011;1551;51.046;7.010;2023-01-30T11:46:51;10.30;;;3.60;;
3081;SDS011;1551;51.046;7.010;2023-01-30T11:49:41;11.80;;;3.60;;
3081;SDS011;1551;51.046;7.010;2023-01-30T11:52:35;10.50;;;3.13;;
3081;SDS011;1551;51.046;7.010;2023-01-30T11:55:26;13.17;;;3.50;;
3081;SDS011;1551;51.046;7.010;2023-01-30T11:58:15;13.48;;;3.72;;
3081;SDS011;1551;51.046;7.010;2023-01-30T12:01:04;9.23;;;2.60;;
3081;SDS011;1551;51.046;7.010;2023-01-30T12:03:59;10.30;;;2.70;;
3081;SDS011;1551;51.046;7.010;2023-01-30T12:06:49;11.80;;;3.05;;
3081;SDS011;1551;51.046;7.010;2023-01-30T12:09:54;8.05;;;2.97;;
3081;SDS011;1551;51.046;7.010;2023-01-30T12:12:51;8.73;;;2.67;;
3081;SDS011;1551;51.046;7.010;2023-01-30T12:15:44;9.13;;;2.55;;
3081;SDS011;1551;51.046;7.010;2023-01-30T12:18:37;12.35;;;3.10;;
3081;SDS011;1551;51.046;7.010;2023-01-30T12:24:59;9.38;;;2.50;;
3081;SDS011;1551;51.046;7.010;2023-01-30T12:27:55;9.57;;;2.40;;
3081;SDS011;1551;51.046;7.010;2023-01-30T12:30:53;9.13;;;3.30;;
3081;SDS011;1551;51.046;7.010;2023-01-30T12:33:45;8.60;;;2.42;;
3081;SDS011;1551;51.046;7.010;2023-01-30T12:39:48;8.55;;;2.47;;
3081;SDS011;1551;51.046;7.010;2023-01-30T12:50:05;9.88;;;3.00;;
3081;SDS011;1551;51.046;7.010;2023-01-30T12:53:30;10.57;;;3.20;;
3081;SDS011;1551;51.046;7.010;2023-01-30T12:56:41;10.18;;;2.65;;
3081;SDS011;1551;51.046;7.010;2023-01-30T13:05:46;7.78;;;2.13;;
3081;SDS011;1551;51.046;7.010;2023-01-30T13:15:06;12.15;;;2.33;;
3081;SDS011;1551;51.046;7.010;2023-01-30T13:18:14;11.55;;;2.60;;
3081;SDS011;1551;51.046;7.010;2023-01-30T13:21:30;7.75;;;2.28;;
3081;SDS011;1551;51.046;7.010;2023-01-30T13:27:36;9.20;;;2.80;;
3081;SDS011;1551;51.046;7.010;2023-01-30T13:30:28;9.37;;;2.83;;
3081;SDS011;1551;51.046;7.010;2023-01-30T13:33:21;16.90;;;9.35;;
3081;SDS011;1551;51.046;7.010;2023-01-30T13:36:14;25.65;;;13.18;;
3081;SDS011;1551;51.046;7.010;2023-01-30T13:39:23;24.38;;;12.73;;
3081;SDS011;1551;51.046;7.010;2023-01-30T13:42:36;8.70;;;4.03;;
3081;SDS011;1551;51.046;7.010;2023-01-30T13:45:30;9.95;;;3.05;;
3081;SDS011;1551;51.046;7.010;2023-01-30T13:54:48;12.05;;;2.90;;
3081;SDS011;1551;51.046;7.010;2023-01-30T13:57:49;10.77;;;2.65;;
3081;SDS011;1551;51.046;7.010;2023-01-30T14:00:52;11.05;;;2.17;;
3081;SDS011;1551;51.046;7.010;2023-01-30T14:03:43;8.68;;;2.75;;
3081;SDS011;1551;51.046;7.010;2023-01-30T14:06:33;10.77;;;2.78;;
3081;SDS011;1551;51.046;7.010;2023-01-30T14:09:25;12.50;;;3.30;;
3081;SDS011;1551;51.046;7.010;2023-01-30T14:12:24;12.85;;;2.90;;
3081;SDS011;1551;51.046;7.010;2023-01-30T14:15:24;12.68;;;2.40;;
3081;SDS011;1551;51.046;7.010;2023-01-30T14:18:26;13.10;;;3.30;;
3081;SDS011;1551;51.046;7.010;2023-01-30T14:24:14;16.80;;;3.17;;
3081;SDS011;1551;51.046;7.010;2023-01-30T14:27:25;9.35;;;2.63;;
3081;SDS011;1551;51.046;7.010;2023-01-30T14:42:27;6.43;;;2.30;;
3081;SDS011;1551;51.046;7.010;2023-01-30T14:45:17;10.35;;;3.30;;
3081;SDS011;1551;51.046;7.010;2023-01-30T14:48:34;13.43;;;2.80;;
3081;SDS011;1551;51.046;7.010;2023-01-30T14:51:46;10.02;;;3.17;;
3081;SDS011;1551;51.046;7.010;2023-01-30T14:54:38;7.93;;;2.55;;
3081;SDS011;1551;51.046;7.010;2023-01-30T14:57:31;11.85;;;3.20;;
3081;SDS011;1551;51.046;7.010;2023-01-30T15:00:23;10.73;;;3.40;;
3081;SDS011;1551;51.046;7.010;2023-01-30T15:03:20;13.38;;;4.10;;
3081;SDS011;1551;51.046;7.010;2023-01-30T15:06:09;14.10;;;3.67;;
3081;SDS011;1551;51.046;7.010;2023-01-30T15:08:58;12.02;;;3.33;;
3081;SDS011;1551;51.046;7.010;2023-01-30T15:11:50;9.93;;;2.70;;
3081;SDS011;1551;51.046;7.010;2023-01-30T15:18:06;12.50;;;3.35;;
3081;SDS011;1551;51.046;7.010;2023-01-30T15:27:21;8.93;;;2.92;;
3081;SDS011;1551;51.046;7.010;2023-01-30T15:30:24;11.15;;;4.50;;
3081;SDS011;1551;51.046;7.010;2023-01-30T15:33:27;12.73;;;3.28;;
3081;SDS011;1551;51.046;7.010;2023-01-30T15:36:17;12.45;;;3.08;;
3081;SDS011;1551;51.046;7.010;2023-01-30T15:39:22;10.60;;;3.22;;
3081;SDS011;1551;51.046;7.010;2023-01-30T15:42:13;13.77;;;3.50;;
3081;SDS011;1551;51.046;7.010;2023-01-30T15:51:26;10.00;;;2.80;;
3081;SDS011;1551;51.046;7.010;2023-01-30T15:54:17;11.50;;;3.55;;
3081;SDS011;1551;51.046;7.010;2023-01-30T15:57:11;13.00;;;3.73;;
3081;SDS011;1551;51.046;7.010;2023-01-30T16:00:05;11.63;;;3.78;;
3081;SDS011;1551;51.046;7.010;2023-01-30T16:03:01;13.32;;;3.47;;
3081;SDS011;1551;51.046;7.010;2023-01-30T16:05:54;10.40;;;3.30;;
3081;SDS011;1551;51.046;7.010;2023-01-30T16:08:44;11.65;;;3.70;;
3081;SDS011;1551;51.046;7.010;2023-01-30T16:11:43;9.85;;;3.38;;
3081;SDS011;1551;51.046;7.010;2023-01-30T16:14:32;11.85;;;3.05;;
3081;SDS011;1551;51.046;7.010;2023-01-30T16:17:22;16.15;;;5.53;;
3081;SDS011;1551;51.046;7.010;2023-01-30T16:20:14;10.73;;;3.33;;
3081;SDS011;1551;51.046;7.010;2023-01-30T16:23:05;9.13;;;2.78;;
3081;SDS011;1551;51.046;7.010;2023-01-30T16:26:08;14.20;;;4.50;;
3081;SDS011;1551;51.046;7.010;2023-01-30T16:29:06;12.95;;;4.93;;
3081;SDS011;1551;51.046;7.010;2023-01-30T16:32:00;16.83;;;3.83;;
3081;SDS011;1551;51.046;7.010;2023-01-30T16:34:49;15.50;;;3.72;;
3081;SDS011;1551;51.046;7.010;2023-01-30T16:37:38;15.20;;;3.70;;
3081;SDS011;1551;51.046;7.010;2023-01-30T16:40:41;11.52;;;3.65;;
3081;SDS011;1551;51.046;7.010;2023-01-30T16:43:31;10.50;;;3.20;;
3081;SDS011;1551;51.046;7.010;2023-01-30T16:52:24;12.55;;;3.63;;
3081;SDS011;1551;51.046;7.010;2023-01-30T16:55:19;15.07;;;3.40;;
3081;SDS011;1551;51.046;7.010;2023-01-30T16:58:11;17.55;;;4.10;;
3081;SDS011;1551;51.046;7.010;2023-01-30T17:01:05;11.05;;;3.00;;
3081;SDS011;1551;51.046;7.010;2023-01-30T17:03:59;13.20;;;3.70;;
3081;SDS011;1551;51.046;7.010;2023-01-30T17:06:55;13.50;;;3.97;;
3081;SDS011;1551;51.046;7.010;2023-01-30T17:09:47;13.30;;;3.25;;
3081;SDS011;1551;51.046;7.010;2023-01-30T17:12:36;12.20;;;3.47;;
3081;SDS011;1551;51.046;7.010;2023-01-30T17:15:31;14.65;;;3.83;;
3081;SDS011;1551;51.046;7.010;2023-01-30T17:18:21;11.98;;;3.20;;
3081;SDS011;1551;51.046;7.010;2023-01-30T17:21:10;9.75;;;3.15;;
3081;SDS011;1551;51.046;7.010;2023-01-30T17:24:01;13.57;;;4.50;;
3081;SDS011;1551;51.046;7.010;2023-01-30T17:26:54;14.77;;;3.20;;
3081;SDS011;1551;51.046;7.010;2023-01-30T17:29:49;12.23;;;3.60;;
3081;SDS011;1551;51.046;7.010;2023-01-30T17:32:39;12.20;;;3.45;;
3081;SDS011;1551;51.046;7.010;2023-01-30T17:35:28;14.85;;;3.47;;
3081;SDS011;1551;51.046;7.010;2023-01-30T17:38:17;15.40;;;4.80;;
3081;SDS011;1551;51.046;7.010;2023-01-30T17:41:07;11.98;;;3.10;;
3081;SDS011;1551;51.046;7.010;2023-01-30T17:44:04;14.23;;;3.25;;
3081;SDS011;1551;51.046;7.010;2023-01-30T17:46:55;9.10;;;3.50;;
3081;SDS011;1551;51.046;7.010;2023-01-30T17:49:44;10.70;;;3.47;;
3081;SDS011;1551;51.046;7.010;2023-01-30T17:52:33;15.82;;;4.30;;
3081;SDS011;1551;51.046;7.010;2023-01-30T17:55:22;20.52;;;3.80;;
3081;SDS011;1551;51.046;7.010;2023-01-30T17:58:11;15.23;;;3.58;;
3081;SDS011;1551;51.046;7.010;2023-01-30T18:01:04;8.60;;;3.40;;
3081;SDS011;1551;51.046;7.010;2023-01-30T18:03:53;17.80;;;3.90;;
3081;SDS011;1551;51.046;7.010;2023-01-30T18:06:42;10.18;;;3.58;;
3081;SDS011;1551;51.046;7.010;2023-01-30T18:09:44;22.17;;;4.18;;
3081;SDS011;1551;51.046;7.010;2023-01-30T18:12:33;13.30;;;4.20;;
3081;SDS011;1551;51.046;7.010;2023-01-30T18:15:22;14.07;;;4.55;;
3081;SDS011;1551;51.046;7.010;2023-01-30T18:18:11;10.70;;;4.47;;
3081;SDS011;1551;51.046;7.010;2023-01-30T18:21:04;15.55;;;4.05;;
3081;SDS011;1551;51.046;7.010;2023-01-30T18:23:53;12.80;;;4.13;;
3081;SDS011;1551;51.046;7.010;2023-01-30T18:26:42;13.98;;;3.60;;
3081;SDS011;1551;51.046;7.010;2023-01-30T18:29:30;11.45;;;3.90;;
3081;SDS011;1551;51.046;7.010;2023-01-30T18:32:19;14.60;;;3.97;;
3081;SDS011;1551;51.046;7.010;2023-01-30T18:35:08;17.50;;;4.32;;
3081;SDS011;1551;51.046;7.010;2023-01-30T18:37:58;9.10;;;3.45;;
3081;SDS011;1551;51.046;7.010;2023-01-30T18:40:47;12.55;;;3.90;;
3081;SDS011;1551;51.046;7.010;2023-01-30T18:43:36;14.43;;;4.13;;
3081;SDS011;1551;51.046;7.010;2023-01-30T18:46:25;15.35;;;3.58;;
3081;SDS011;1551;51.046;7.010;2023-01-30T18:49:15;10.80;;;3.15;;
3081;SDS011;1551;51.046;7.010;2023-01-30T18:52:04;13.80;;;3.88;;
3081;SDS011;1551;51.046;7.010;2023-01-30T18:54:53;13.50;;;3.40;;
3081;SDS011;1551;51.046;7.010;2023-01-30T18:57:42;16.77;;;3.88;;
3081;SDS011;1551;51.046;7.010;2023-01-30T19:00:31;13.55;;;3.83;;
3081;SDS011;1551;51.046;7.010;2023-01-30T19:03:20;11.18;;;3.00;;
3081;SDS011;1551;51.046;7.010;2023-01-30T19:06:09;23.80;;;10.20;;
3081;SDS011;1551;51.046;7.010;2023-01-30T19:09:01;15.00;;;4.10;;
3081;SDS011;1551;51.046;7.010;2023-01-30T19:11:50;15.43;;;4.07;;
3081;SDS011;1551;51.046;7.010;2023-01-30T19:14:58;17.92;;;4.60;;
3081;SDS011;1551;51.046;7.010;2023-01-30T19:17:47;17.10;;;4.80;;
3081;SDS011;1551;51.046;7.010;2023-01-30T19:20:36;13.13;;;4.25;;
3081;SDS011;1551;51.046;7.010;2023-01-30T19:23:26;19.75;;;4.82;;
3081;SDS011;1551;51.046;7.010;2023-01-30T19:26:16;13.30;;;4.00;;
3081;SDS011;1551;51.046;7.010;2023-01-30T19:29:07;17.53;;;4.10;;
3081;SDS011;1551;51.046;7.010;2023-01-30T19:31:57;14.43;;;3.97;;
3081;SDS011;1551;51.046;7.010;2023-01-30T19:34:46;15.93;;;4.30;;
3081;SDS011;1551;51.046;7.010;2023-01-30T19:37:35;14.70;;;3.70;;
3081;SDS011;1551;51.046;7.010;2023-01-30T19:40:25;15.93;;;3.67;;
3081;SDS011;1551;51.046;7.010;2023-01-30T19:43:15;14.40;;;3.35;;
3081;SDS011;1551;51.046;7.010;2023-01-30T19:46:04;12.25;;;3.40;;
3081;SDS011;1551;51.046;7.010;2023-01-30T19:48:53;13.73;;;3.67;;
3081;SDS011;1551;51.046;7.010;2023-01-30T19:51:42;13.05;;;4.15;;
3081;SDS011;1551;51.046;7.010;2023-01-30T19:54:32;16.48;;;3.72;;
3081;SDS011;1551;51.046;7.010;2023-01-30T19:57:22;14.52;;;4.20;;
3081;SDS011;1551;51.046;7.010;2023-01-30T20:00:11;15.98;;;3.75;;
3081;SDS011;1551;51.046;7.010;2023-01-30T20:03:01;14.80;;;4.60;;
3081;SDS011;1551;51.046;7.010;2023-01-30T20:05:50;16.10;;;3.70;;